Villa Elisa, Argentina
Current Conditions -  °F | °C
As of 3:00 PM on Sunday 21 Dec 2014 (Local Time) from SUSO Reporting Station
Scattered Clouds Scattered Clouds  
Wind Chill: 70°   Ceiling: Unl
Heat Index: 70°   Visibility: 6mi
Dew Point: 59°   Wind: 14mph
Humidity: 68%   Direction: 190°S
Pressure: 29.71"   Gusts: NA
Location:  32.17°S, 58.4°W
Report Text: SUSO 211800Z 19012KT 9999 FEW020 SCT067 21/15 Q1006
Loading
Personal Weather Stations






























Interactive Weather Map New forecast layout! Learn more

10-Day Weather Forecast

Advertisements
Track Severe Weather on mobile